createdAt,value
2019-04-30T00:01:26.652Z,11.11
2019-04-30T00:03:59.373Z,11.12
2019-04-30T00:06:34.541Z,11.08
2019-04-30T00:09:02.163Z,11.05
2019-04-30T00:11:31.694Z,11.03
2019-04-30T00:14:01.403Z,10.97
2019-04-30T00:16:35.564Z,10.65
2019-04-30T00:19:02.212Z,10.38
2019-04-30T00:21:31.675Z,10.51
2019-04-30T00:24:06.327Z,10.32
2019-04-30T00:26:32.641Z,10.36
2019-04-30T00:29:02.250Z,10.52
2019-04-30T00:31:31.991Z,10.56
2019-04-30T00:34:01.534Z,10.60
2019-04-30T00:36:34.134Z,10.61
2019-04-30T00:39:02.209Z,10.66
2019-04-30T00:41:32.037Z,10.72
2019-04-30T00:44:24.813Z,10.44
2019-04-30T00:46:52.075Z,10.45
2019-04-30T00:49:23.177Z,10.58
2019-04-30T00:51:54.730Z,10.50
2019-04-30T00:54:28.008Z,10.62
2019-04-30T00:56:57.498Z,10.56
2019-04-30T00:59:26.405Z,10.57
2019-04-30T01:01:57.528Z,10.66
2019-04-30T01:04:28.781Z,10.65
2019-04-30T01:07:00.269Z,10.76
2019-04-30T01:09:30.058Z,10.74
2019-04-30T01:11:59.571Z,10.73
2019-04-30T01:14:31.985Z,10.83
2019-04-30T01:17:03.837Z,10.88
2019-04-30T01:19:32.904Z,10.90
2019-04-30T01:22:03.022Z,10.90
2019-04-30T01:24:38.781Z,10.54
2019-04-30T01:27:10.674Z,10.58
2019-04-30T01:29:44.084Z,10.67
2019-04-30T01:32:17.459Z,10.80
2019-04-30T01:34:44.215Z,10.87
2019-04-30T01:37:14.387Z,10.89
2019-04-30T01:39:43.901Z,10.71
2019-04-30T01:42:13.393Z,10.72
2019-04-30T01:44:43.563Z,10.78
2019-04-30T01:47:14.119Z,10.86
2019-04-30T01:49:44.867Z,10.94
2019-04-30T01:52:14.566Z,10.74
2019-04-30T01:54:44.091Z,10.72
2019-04-30T01:57:35.999Z,10.68
2019-04-30T02:00:09.746Z,10.80
2019-04-30T02:02:59.295Z,10.92
2019-04-30T02:05:28.978Z,10.76
2019-04-30T02:07:58.634Z,10.77
2019-04-30T02:10:49.187Z,10.85
2019-04-30T02:13:18.914Z,10.94
2019-04-30T02:15:49.251Z,10.81
2019-04-30T02:18:19.514Z,10.91
2019-04-30T02:20:49.783Z,10.91
2019-04-30T02:23:19.745Z,10.98
2019-04-30T02:25:49.393Z,11.02
2019-04-30T02:28:19.161Z,11.09
2019-04-30T02:30:50.408Z,11.10
2019-04-30T02:33:20.505Z,11.14
2019-04-30T02:38:39.578Z,11.01
2019-04-30T02:41:10.236Z,11.03
2019-04-30T02:43:42.126Z,10.93
2019-04-30T02:46:15.632Z,11.00
2019-04-30T02:48:47.240Z,11.02
2019-04-30T02:51:22.550Z,11.12
2019-04-30T02:53:55.791Z,11.05
2019-04-30T02:56:27.102Z,10.94
2019-04-30T02:59:00.441Z,11.00
2019-04-30T03:01:50.128Z,10.96
2019-04-30T03:04:19.772Z,11.02
2019-04-30T03:06:50.229Z,10.68
2019-04-30T03:09:20.482Z,10.77
2019-04-30T03:11:50.374Z,10.91
2019-04-30T03:14:20.364Z,10.86
2019-04-30T03:16:53.284Z,11.01
2019-04-30T03:22:10.180Z,10.89
2019-04-30T03:24:42.924Z,10.76
2019-04-30T03:27:11.095Z,10.75
2019-04-30T03:29:40.842Z,10.82
2019-04-30T03:32:23.281Z,10.84
2019-04-30T03:34:52.829Z,10.79
2019-04-30T03:37:22.299Z,10.78
2019-04-30T03:39:51.778Z,10.73
2019-04-30T03:42:21.292Z,10.75
2019-04-30T03:44:50.759Z,10.76
2019-04-30T03:47:20.494Z,10.75
2019-04-30T03:49:50.386Z,10.56
2019-04-30T03:52:20.031Z,10.58
2019-04-30T03:54:49.827Z,10.61
2019-04-30T03:57:20.462Z,10.73
2019-04-30T03:59:50.296Z,10.64
2019-04-30T04:02:21.379Z,10.68
2019-04-30T04:04:52.907Z,10.84
2019-04-30T04:10:11.587Z,10.69
2019-04-30T04:12:41.095Z,10.84
2019-04-30T04:15:12.315Z,10.83
2019-04-30T04:17:41.788Z,10.88
2019-04-30T04:20:11.783Z,10.76
2019-04-30T04:22:41.344Z,10.72
2019-04-30T04:25:13.210Z,10.84
2019-04-30T04:27:42.591Z,10.88
2019-04-30T04:30:12.779Z,10.99
2019-04-30T04:32:42.283Z,11.04
2019-04-30T04:35:13.000Z,10.91
2019-04-30T04:37:42.716Z,10.90
2019-04-30T04:40:21.016Z,10.82
2019-04-30T04:42:49.597Z,10.84
2019-04-30T04:45:19.878Z,10.69
2019-04-30T04:47:50.392Z,10.93
2019-04-30T04:50:20.440Z,11.04
2019-04-30T04:52:49.953Z,11.08
2019-04-30T04:55:22.139Z,11.03
2019-04-30T04:57:50.813Z,10.88
2019-04-30T05:00:20.728Z,11.03
2019-04-30T05:02:52.052Z,10.81
2019-04-30T05:05:21.536Z,10.88
2019-04-30T05:07:51.015Z,10.49
2019-04-30T05:10:20.563Z,10.69
2019-04-30T05:12:51.086Z,10.79
2019-04-30T05:15:20.741Z,10.66
2019-04-30T05:17:50.225Z,10.85
2019-04-30T05:20:19.727Z,10.97
2019-04-30T05:22:58.563Z,11.02
2019-04-30T05:25:29.619Z,11.18
2019-04-30T05:27:59.199Z,11.26
2019-04-30T05:30:29.540Z,11.33
2019-04-30T05:32:59.249Z,11.44
2019-04-30T05:35:30.952Z,11.56
2019-04-30T05:38:01.436Z,11.57
2019-04-30T05:40:30.902Z,11.57
2019-04-30T05:43:00.493Z,11.29
2019-04-30T05:45:30.021Z,11.34
2019-04-30T05:48:05.870Z,11.46
2019-04-30T05:50:39.178Z,11.46
2019-04-30T05:53:09.074Z,11.00
2019-04-30T05:55:39.544Z,10.83
2019-04-30T05:58:09.603Z,11.10
2019-04-30T06:00:40.034Z,10.97
2019-04-30T06:03:09.957Z,10.85
2019-04-30T06:05:51.556Z,10.75
2019-04-30T06:08:22.799Z,10.99
2019-04-30T06:10:56.893Z,10.82
2019-04-30T06:13:28.735Z,10.74
2019-04-30T06:15:59.963Z,10.91
2019-04-30T06:18:30.991Z,11.01
2019-04-30T06:21:00.863Z,11.14
2019-04-30T06:23:30.362Z,10.89
2019-04-30T06:26:09.365Z,11.07
2019-04-30T06:28:51.485Z,11.27
2019-04-30T06:31:43.158Z,11.23
2019-04-30T06:34:12.012Z,11.20
2019-04-30T06:36:50.945Z,11.13
2019-04-30T06:39:12.731Z,11.30
2019-04-30T06:41:42.567Z,11.21
2019-04-30T06:44:12.668Z,11.41
2019-04-30T06:46:43.611Z,11.47
2019-04-30T06:49:14.520Z,11.73
2019-04-30T06:51:45.574Z,11.76
2019-04-30T06:54:15.189Z,11.40
2019-04-30T06:56:44.660Z,11.77
2019-04-30T06:59:14.164Z,11.82
2019-04-30T07:01:44.031Z,12.03
2019-04-30T07:04:13.602Z,12.07
2019-04-30T07:06:45.125Z,11.88
2019-04-30T07:09:16.038Z,12.16
2019-04-30T07:11:49.246Z,12.42
2019-04-30T07:14:19.563Z,12.14
2019-04-30T07:16:54.868Z,12.20
2019-04-30T07:19:33.013Z,12.11
2019-04-30T07:21:55.500Z,12.46
2019-04-30T07:24:26.624Z,12.39
2019-04-30T07:26:59.700Z,12.25
2019-04-30T07:29:29.492Z,11.80
2019-04-30T07:31:59.222Z,12.21
2019-04-30T07:34:30.285Z,11.94
2019-04-30T07:37:11.814Z,12.25
2019-04-30T07:39:33.361Z,12.35
2019-04-30T07:42:02.586Z,12.11
2019-04-30T07:44:36.433Z,12.11
2019-04-30T07:47:03.897Z,11.99
2019-04-30T07:52:05.426Z,12.40
2019-04-30T07:54:35.389Z,12.63
2019-04-30T07:57:04.904Z,12.69
2019-04-30T07:59:34.375Z,12.49
2019-04-30T08:04:36.883Z,12.96
2019-04-30T08:07:06.367Z,13.08
2019-04-30T08:09:35.521Z,12.31
2019-04-30T08:09:38.272Z,12.48
2019-04-30T08:09:39.783Z,13.35
2019-04-30T08:12:09.370Z,13.05
2019-04-30T08:14:44.554Z,13.37
2019-04-30T08:17:14.034Z,13.34
2019-04-30T08:19:43.521Z,12.76
2019-04-30T08:22:13.131Z,13.30
2019-04-30T08:24:42.623Z,13.10
2019-04-30T08:27:12.107Z,12.71
2019-04-30T08:29:41.594Z,12.87
2019-04-30T08:32:11.075Z,12.82
2019-04-30T08:34:42.654Z,13.14
2019-04-30T08:37:17.144Z,13.74
2019-04-30T08:39:43.604Z,16.13
2019-04-30T08:42:13.245Z,18.23
2019-04-30T08:44:42.760Z,18.00
2019-04-30T08:47:12.483Z,17.83
2019-04-30T08:49:41.988Z,19.03
2019-04-30T08:52:11.787Z,18.02
2019-04-30T08:54:41.611Z,17.50
2019-04-30T08:57:11.151Z,18.93
2019-04-30T08:59:40.678Z,19.10
2019-04-30T09:02:16.078Z,18.68
2019-04-30T09:04:41.526Z,19.51
2019-04-30T09:07:11.190Z,18.73
2019-04-30T09:09:40.678Z,20.71
2019-04-30T09:12:10.222Z,23.53
2019-04-30T09:14:42.495Z,24.79
2019-04-30T09:17:19.731Z,26.08
2019-04-30T09:19:49.176Z,26.75
2019-04-30T09:22:19.451Z,26.95
2019-04-30T09:24:49.866Z,25.52
2019-04-30T09:27:22.198Z,25.00
2019-04-30T09:29:51.711Z,24.88
2019-04-30T09:32:21.207Z,25.83
2019-04-30T09:35:10.372Z,23.53
2019-04-30T09:37:41.769Z,22.95
2019-04-30T09:40:18.249Z,21.73
2019-04-30T09:42:42.924Z,21.71
2019-04-30T09:45:12.802Z,22.29
2019-04-30T09:48:01.607Z,23.63
2019-04-30T09:50:31.341Z,24.93
2019-04-30T09:53:02.689Z,23.10
2019-04-30T09:55:32.430Z,26.40
2019-04-30T09:58:21.368Z,23.80
2019-04-30T10:01:10.239Z,27.11
2019-04-30T10:03:40.399Z,28.93
2019-04-30T10:06:38.928Z,26.04
2019-04-30T10:09:01.183Z,28.95
2019-04-30T10:11:32.273Z,28.56
2019-04-30T10:14:21.269Z,25.28
2019-04-30T10:16:52.351Z,24.30
2019-04-30T10:19:21.852Z,27.05
2019-04-30T10:21:51.745Z,25.08
2019-04-30T10:24:22.799Z,26.54
2019-04-30T10:27:13.377Z,30.67
2019-04-30T10:29:43.563Z,33.20
2019-04-30T10:32:13.288Z,26.51
2019-04-30T10:35:02.177Z,29.19
2019-04-30T10:37:31.869Z,22.03
2019-04-30T10:40:01.414Z,25.13
2019-04-30T10:42:30.985Z,28.06
2019-04-30T10:45:00.473Z,26.83
2019-04-30T10:47:32.497Z,27.06
2019-04-30T10:50:21.257Z,29.33
2019-04-30T10:53:12.413Z,28.94
2019-04-30T10:56:00.664Z,26.13
2019-04-30T10:58:30.168Z,22.86
2019-04-30T11:01:01.987Z,26.07
2019-04-30T11:03:31.141Z,26.67
2019-04-30T11:06:00.765Z,29.49
2019-04-30T11:08:30.259Z,26.60
2019-04-30T11:10:59.874Z,28.32
2019-04-30T11:13:48.688Z,24.98
2019-04-30T11:16:18.892Z,23.84
2019-04-30T11:18:48.718Z,27.06
2019-04-30T11:21:19.766Z,24.23
2019-04-30T11:24:09.342Z,24.21
2019-04-30T11:26:40.265Z,25.64
2019-04-30T11:29:10.768Z,24.29
2019-04-30T11:31:42.199Z,24.56
2019-04-30T11:34:12.004Z,25.82
2019-04-30T11:36:41.560Z,25.55
2019-04-30T11:39:23.695Z,24.47
2019-04-30T11:41:53.219Z,26.95
2019-04-30T11:44:30.826Z,27.18
2019-04-30T11:46:59.671Z,26.97
2019-04-30T11:49:29.311Z,26.09
2019-04-30T11:51:59.039Z,26.37
2019-04-30T11:54:29.887Z,27.68
2019-04-30T11:57:18.894Z,28.16
2019-04-30T11:59:48.645Z,27.68
2019-04-30T12:02:21.195Z,26.56
2019-04-30T12:04:51.022Z,27.21
2019-04-30T12:07:22.297Z,23.39
2019-04-30T12:09:53.724Z,24.81
2019-04-30T12:12:24.054Z,22.98
2019-04-30T12:14:53.582Z,24.34
2019-04-30T12:17:23.115Z,24.84
2019-04-30T12:19:52.600Z,23.31
2019-04-30T12:22:22.598Z,23.12
2019-04-30T12:25:02.209Z,24.27
2019-04-30T12:27:23.274Z,23.44
2019-04-30T12:29:52.827Z,24.33
2019-04-30T12:32:22.307Z,25.57
2019-04-30T12:34:51.795Z,25.57
2019-04-30T12:37:21.282Z,24.05
2019-04-30T12:39:50.951Z,24.77
2019-04-30T12:42:20.456Z,25.91
2019-04-30T12:44:50.002Z,25.83
2019-04-30T12:47:21.913Z,27.07
2019-04-30T12:49:52.324Z,25.73
2019-04-30T12:52:23.434Z,26.16
2019-04-30T12:54:54.512Z,25.68
2019-04-30T12:57:25.695Z,22.68
2019-04-30T12:59:55.369Z,22.52
2019-04-30T13:02:25.004Z,24.16
2019-04-30T13:04:54.603Z,25.37
2019-04-30T13:07:24.868Z,24.79
2019-04-30T13:09:55.272Z,24.27
2019-04-30T13:12:44.987Z,24.18
2019-04-30T13:15:15.572Z,24.38
2019-04-30T13:17:45.209Z,24.21
2019-04-30T13:20:21.030Z,24.88
2019-04-30T13:22:46.550Z,24.12
2019-04-30T13:25:28.195Z,25.80
2019-04-30T13:27:49.133Z,25.66
2019-04-30T13:30:20.814Z,26.58
2019-04-30T13:32:51.905Z,27.24
2019-04-30T13:35:21.434Z,26.71
2019-04-30T13:37:52.488Z,27.34
2019-04-30T13:40:23.870Z,26.90
2019-04-30T13:43:06.942Z,26.20
2019-04-30T13:45:36.345Z,26.66
2019-04-30T13:48:25.173Z,27.30
2019-04-30T13:50:54.641Z,27.48
2019-04-30T13:53:24.139Z,27.64
2019-04-30T13:55:53.626Z,27.67
2019-04-30T13:58:23.102Z,25.24
2019-04-30T14:00:52.611Z,25.45
2019-04-30T14:03:23.807Z,24.52
2019-04-30T14:05:53.460Z,22.88
2019-04-30T14:08:24.581Z,23.67
2019-04-30T14:10:54.541Z,23.16
2019-04-30T14:13:25.765Z,24.63
2019-04-30T14:15:55.346Z,23.40
2019-04-30T14:18:30.864Z,22.21
2019-04-30T14:20:56.403Z,22.35
2019-04-30T14:23:26.105Z,24.47
2019-04-30T14:25:56.889Z,24.88
2019-04-30T14:28:32.030Z,25.96
2019-04-30T14:31:03.184Z,26.03
2019-04-30T14:33:51.965Z,25.58
2019-04-30T14:36:21.823Z,26.93
2019-04-30T14:38:51.282Z,27.46
2019-04-30T14:41:21.582Z,25.86
2019-04-30T14:43:59.347Z,23.98
2019-04-30T14:46:31.218Z,25.17
2019-04-30T14:49:04.825Z,25.46
2019-04-30T14:51:54.427Z,24.10
2019-04-30T14:54:25.532Z,23.79
2019-04-30T14:56:56.676Z,23.79
2019-04-30T14:59:33.969Z,24.33
2019-04-30T15:02:05.372Z,23.23
2019-04-30T15:04:34.855Z,21.30
2019-04-30T15:07:04.523Z,22.11
2019-04-30T15:09:39.879Z,22.79
2019-04-30T15:12:09.744Z,22.68
2019-04-30T15:14:41.037Z,22.19
2019-04-30T15:17:11.084Z,21.88
2019-04-30T15:19:40.574Z,21.84
2019-04-30T15:22:10.094Z,20.83
2019-04-30T15:24:40.623Z,20.83
2019-04-30T15:27:10.114Z,20.42
2019-04-30T15:29:58.912Z,20.34
2019-04-30T15:32:28.655Z,20.88
2019-04-30T15:34:58.936Z,20.47
2019-04-30T15:37:28.748Z,20.47
2019-04-30T15:39:59.144Z,19.43
2019-04-30T15:42:28.808Z,19.46
2019-04-30T15:44:59.462Z,19.47
2019-04-30T15:47:29.178Z,19.94
2019-04-30T15:49:59.656Z,19.52
2019-04-30T15:52:29.981Z,19.68
2019-04-30T15:55:18.995Z,19.71
2019-04-30T15:57:50.186Z,19.30
2019-04-30T16:00:20.924Z,19.09
2019-04-30T16:02:56.524Z,18.91
2019-04-30T16:05:25.450Z,19.25
2019-04-30T16:07:56.569Z,19.72
2019-04-30T16:10:28.597Z,19.62
2019-04-30T16:12:59.839Z,19.85
2019-04-30T16:15:29.743Z,19.80
2019-04-30T16:18:19.557Z,19.76
2019-04-30T16:20:49.836Z,19.64
2019-04-30T16:23:19.615Z,19.91
2019-04-30T16:26:08.434Z,19.76
2019-04-30T16:28:39.057Z,19.73
2019-04-30T16:31:09.094Z,19.43
2019-04-30T16:33:39.347Z,19.29
2019-04-30T16:36:09.218Z,19.17
2019-04-30T16:38:38.745Z,19.32
2019-04-30T16:41:08.890Z,19.36
2019-04-30T16:43:38.889Z,19.54
2019-04-30T16:46:08.400Z,19.32
2019-04-30T16:48:38.867Z,19.07
2019-04-30T16:51:09.121Z,18.75
2019-04-30T16:53:40.274Z,18.66
2019-04-30T16:56:09.981Z,18.50
2019-04-30T16:58:41.057Z,18.61
2019-04-30T17:01:12.239Z,18.79
2019-04-30T17:03:43.390Z,18.75
2019-04-30T17:06:14.492Z,18.77
2019-04-30T17:08:45.597Z,18.78
2019-04-30T17:11:16.724Z,18.96
2019-04-30T17:13:47.819Z,18.94
2019-04-30T17:16:24.331Z,18.69
2019-04-30T17:18:53.789Z,18.45
2019-04-30T17:21:23.363Z,18.66
2019-04-30T17:23:53.155Z,18.74
2019-04-30T17:26:22.646Z,18.56
2019-04-30T17:28:52.131Z,18.30
2019-04-30T17:31:22.015Z,18.33
2019-04-30T17:33:52.019Z,18.35
2019-04-30T17:36:21.489Z,18.29
2019-04-30T17:38:51.155Z,18.38
2019-04-30T17:41:20.633Z,18.36
2019-04-30T17:43:51.077Z,18.45
2019-04-30T17:46:20.688Z,18.40
2019-04-30T17:48:50.163Z,18.52
2019-04-30T17:51:25.373Z,18.04
2019-04-30T17:53:57.107Z,17.89
2019-04-30T17:56:47.107Z,17.87
2019-04-30T17:59:16.735Z,17.79
2019-04-30T18:01:49.639Z,17.78
2019-04-30T18:04:22.019Z,17.69
2019-04-30T18:06:52.597Z,17.52
2019-04-30T18:09:23.896Z,17.43
2019-04-30T18:12:12.709Z,17.37
2019-04-30T18:14:42.174Z,17.11
2019-04-30T18:17:11.807Z,17.01
2019-04-30T18:19:44.771Z,16.93
2019-04-30T18:22:15.834Z,16.80
2019-04-30T18:24:46.929Z,16.55
2019-04-30T18:27:20.997Z,16.24
2019-04-30T18:29:49.602Z,16.06
2019-04-30T18:32:20.784Z,15.99
2019-04-30T18:34:50.462Z,15.81
2019-04-30T18:37:19.958Z,15.62
2019-04-30T18:39:49.442Z,15.46
2019-04-30T18:42:19.464Z,15.35
2019-04-30T18:44:49.973Z,15.18
2019-04-30T18:47:19.444Z,15.05
2019-04-30T18:49:49.601Z,15.00
2019-04-30T18:52:19.097Z,14.92
2019-04-30T18:54:49.516Z,14.75
2019-04-30T18:57:19.428Z,14.63
2019-04-30T18:59:48.888Z,14.59
2019-04-30T19:02:18.994Z,14.49
2019-04-30T19:04:49.558Z,14.33
2019-04-30T19:07:20.911Z,14.16
2019-04-30T19:09:52.092Z,14.08
2019-04-30T19:12:23.253Z,14.10
2019-04-30T19:14:54.365Z,13.97
2019-04-30T19:17:26.074Z,13.89
2019-04-30T19:19:57.420Z,13.80
2019-04-30T19:22:28.598Z,13.75
2019-04-30T19:24:59.492Z,13.76
2019-04-30T19:27:31.017Z,13.79
2019-04-30T19:30:04.877Z,13.73
2019-04-30T19:32:34.376Z,13.71
2019-04-30T19:35:05.025Z,13.60
2019-04-30T19:37:34.493Z,13.50
2019-04-30T19:40:08.978Z,13.35
2019-04-30T19:42:39.563Z,13.33
2019-04-30T19:45:12.365Z,13.24
2019-04-30T19:47:40.863Z,13.20
2019-04-30T19:50:13.882Z,13.19
2019-04-30T19:52:42.211Z,13.26
2019-04-30T19:55:12.106Z,13.30
2019-04-30T19:57:41.588Z,13.33
2019-04-30T20:00:11.563Z,13.35
2019-04-30T20:02:41.136Z,13.38
2019-04-30T20:05:11.064Z,13.46
2019-04-30T20:07:40.732Z,13.39
2019-04-30T20:10:10.919Z,13.45
2019-04-30T20:12:59.738Z,13.41
2019-04-30T20:15:29.792Z,13.41
2019-04-30T20:18:00.999Z,13.42
2019-04-30T20:20:30.832Z,13.34
2019-04-30T20:23:00.460Z,13.28
2019-04-30T20:25:29.880Z,13.26
2019-04-30T20:27:59.376Z,13.20
2019-04-30T20:30:29.288Z,13.04
2019-04-30T20:32:59.441Z,13.02
2019-04-30T20:35:29.111Z,12.96
2019-04-30T20:38:19.556Z,12.91
2019-04-30T20:41:10.001Z,12.82
2019-04-30T20:43:39.581Z,12.82
2019-04-30T20:46:09.783Z,12.82
2019-04-30T20:48:41.095Z,12.88
2019-04-30T20:51:10.687Z,12.85
2019-04-30T20:53:41.054Z,12.97
2019-04-30T20:56:10.755Z,13.03
2019-04-30T20:58:54.665Z,13.09
2019-04-30T21:01:11.502Z,13.00
2019-04-30T21:03:41.034Z,13.05
2019-04-30T21:06:10.510Z,13.09
2019-04-30T21:08:40.007Z,13.16
2019-04-30T21:11:28.838Z,13.20
2019-04-30T21:13:59.069Z,12.85
2019-04-30T21:16:28.777Z,12.35
2019-04-30T21:18:58.298Z,12.00
2019-04-30T21:21:28.752Z,12.16
2019-04-30T21:23:58.665Z,12.36
2019-04-30T21:26:28.162Z,12.33
2019-04-30T21:29:10.403Z,12.47
2019-04-30T21:31:49.853Z,12.40
2019-04-30T21:34:20.946Z,12.42
2019-04-30T21:36:50.520Z,12.51
2019-04-30T21:39:20.230Z,12.49
2019-04-30T21:41:49.779Z,12.40
2019-04-30T21:44:19.270Z,12.32
2019-04-30T21:46:48.929Z,12.32
2019-04-30T21:49:18.431Z,12.32
2019-04-30T21:51:47.889Z,12.42
2019-04-30T21:54:17.377Z,12.36
2019-04-30T21:56:46.884Z,12.33
2019-04-30T21:59:24.288Z,12.40
2019-04-30T22:01:48.029Z,12.39
2019-04-30T22:04:17.485Z,12.36
2019-04-30T22:06:46.985Z,12.37
2019-04-30T22:09:16.866Z,12.20
2019-04-30T22:11:46.334Z,12.18
2019-04-30T22:14:15.839Z,12.15
2019-04-30T22:16:45.426Z,12.10
2019-04-30T22:19:14.918Z,12.10
2019-04-30T22:21:44.574Z,12.09
2019-04-30T22:24:15.622Z,11.65
2019-04-30T22:26:45.102Z,11.48
2019-04-30T22:29:14.560Z,11.57
2019-04-30T22:31:44.090Z,11.57
2019-04-30T22:34:13.549Z,11.45
2019-04-30T22:36:44.621Z,11.33
2019-04-30T22:39:17.245Z,11.27
2019-04-30T22:41:46.705Z,11.18
2019-04-30T22:44:16.198Z,11.08
2019-04-30T22:46:45.713Z,10.93
2019-04-30T22:49:15.360Z,10.90
2019-04-30T22:51:44.951Z,10.86
2019-04-30T22:54:14.497Z,10.78
2019-04-30T22:56:43.976Z,10.67
2019-04-30T22:59:14.935Z,10.58
2019-04-30T23:01:46.146Z,10.53
2019-04-30T23:04:17.245Z,10.50
2019-04-30T23:06:46.919Z,10.34
2019-04-30T23:09:18.288Z,10.29
2019-04-30T23:11:47.765Z,10.28
2019-04-30T23:14:17.291Z,10.15
2019-04-30T23:16:48.305Z,10.13
2019-04-30T23:19:17.800Z,10.03
2019-04-30T23:21:47.289Z,9.93
2019-04-30T23:24:16.768Z,9.88
2019-04-30T23:26:46.221Z,9.82
2019-04-30T23:29:15.683Z,9.73
2019-04-30T23:31:45.210Z,9.71
2019-04-30T23:34:18.155Z,9.67
2019-04-30T23:36:46.055Z,9.63
2019-04-30T23:39:15.539Z,9.56
2019-04-30T23:41:45.167Z,9.45
2019-04-30T23:44:14.632Z,9.36
2019-04-30T23:47:03.467Z,9.31
2019-04-30T23:49:33.064Z,9.19
2019-04-30T23:52:02.533Z,9.19
2019-04-30T23:54:32.074Z,9.22
2019-04-30T23:57:01.553Z,9.18
2019-04-30T23:59:31.030Z,9.08
